Time;durP1;ratioP1;P1;durP2;ratioP2;P2;SDS_P1;SDS_P2;PMS_P1;PMS_P2;Temp;Humidity;BMP_temperature;BMP_pressure;BME280_temperature;BME280_humidity;BME280_pressure;Samples;Min_cycle;Max_cycle;Signal;HPM_P1;HPM_P2
2022/03/14 00:01:32;;;;;;;1.37;0.70;;;12.40;99.90;;;;;;5056166;28;20452;-63
2022/03/14 00:04:04;;;;;;;1.07;0.60;;;12.40;99.90;;;;;;5056147;28;20453;-64
2022/03/14 00:06:36;;;;;;;0.40;0.30;;;12.40;99.90;;;;;;5058892;28;20456;-64
2022/03/14 00:09:10;;;;;;;0.40;0.40;;;12.30;99.90;;;;;;5052899;28;20500;-63
2022/03/14 00:11:41;;;;;;;2.73;0.37;;;12.10;99.90;;;;;;5060819;28;20459;-64
2022/03/14 00:14:12;;;;;;;0.80;0.40;;;12.10;99.90;;;;;;5054657;28;20456;-65
2022/03/14 00:16:47;;;;;;;0.77;0.50;;;11.90;99.90;;;;;;5052795;28;20553;-64
2022/03/14 00:19:20;;;;;;;0.50;0.50;;;11.50;99.90;;;;;;5055708;28;20506;-64
2022/03/14 00:21:55;;;;;;;0.40;0.30;;;11.40;99.90;;;;;;5049582;28;20519;-63
2022/03/14 00:24:27;;;;;;;0.40;0.40;;;11.30;99.90;;;;;;5059363;28;20539;-64
2022/03/14 00:26:59;;;;;;;0.60;0.57;;;11.10;99.90;;;;;;5050743;28;20995;-63
2022/03/14 00:29:30;;;;;;;0.40;0.40;;;11.10;99.90;;;;;;5052105;28;20544;-63
2022/03/14 00:32:01;;;;;;;0.43;0.37;;;11.00;99.90;;;;;;5053285;28;20872;-63
2022/03/14 00:34:32;;;;;;;0.47;0.37;;;11.00;99.90;;;;;;5055487;28;20482;-64
2022/03/14 00:37:05;;;;;;;0.50;0.30;;;10.80;99.90;;;;;;5049239;28;20500;-63
2022/03/14 00:39:36;;;;;;;0.40;0.40;;;10.80;99.90;;;;;;5056122;28;21836;-63
2022/03/14 00:42:07;;;;;;;0.73;0.40;;;10.80;99.90;;;;;;5057804;28;20467;-62
2022/03/14 00:44:38;;;;;;;1.37;0.50;;;10.80;99.90;;;;;;5059747;28;20456;-63
2022/03/14 00:47:11;;;;;;;1.70;0.50;;;10.70;99.90;;;;;;5051316;28;20496;-63
2022/03/14 00:49:42;;;;;;;1.10;0.50;;;10.70;99.90;;;;;;5058176;28;20586;-63
2022/03/14 00:52:16;;;;;;;1.00;0.60;;;10.80;99.90;;;;;;5051844;28;20524;-63
2022/03/14 00:54:47;;;;;;;1.13;0.60;;;10.70;99.90;;;;;;5056093;28;20456;-64
2022/03/14 00:57:18;;;;;;;1.60;0.93;;;10.80;99.90;;;;;;5060779;28;20514;-64
2022/03/14 00:59:51;;;;;;;1.63;0.70;;;10.80;99.90;;;;;;5061826;28;20456;-62
2022/03/14 01:02:22;;;;;;;1.23;0.87;;;10.80;99.90;;;;;;5062308;28;20482;-63
2022/03/14 01:04:53;;;;;;;1.33;1.10;;;10.80;99.90;;;;;;5061266;28;20448;-61
2022/03/14 01:07:25;;;;;;;0.90;0.73;;;10.80;99.90;;;;;;5052765;28;20495;-66
2022/03/14 01:09:57;;;;;;;1.57;0.80;;;10.70;99.90;;;;;;5058171;28;20456;-64
2022/03/14 01:12:28;;;;;;;1.07;0.83;;;10.60;99.90;;;;;;5056567;28;21003;-65
2022/03/14 01:14:58;;;;;;;4.40;0.80;;;10.70;99.90;;;;;;5058884;28;20524;-63
2022/03/14 01:17:29;;;;;;;3.47;1.30;;;10.70;99.90;;;;;;5062078;28;20531;-63
2022/03/14 01:20:00;;;;;;;2.67;2.50;;;10.80;99.90;;;;;;5067333;28;20443;-62
2022/03/14 01:22:33;;;;;;;1.70;1.50;;;10.70;99.90;;;;;;5067115;28;20463;-62
2022/03/14 01:25:04;;;;;;;1.83;1.27;;;10.70;99.90;;;;;;5059102;28;20847;-63
2022/03/14 01:27:35;;;;;;;3.07;1.03;;;10.80;99.90;;;;;;5055954;28;20591;-62
2022/03/14 01:30:07;;;;;;;3.33;1.47;;;10.70;99.90;;;;;;5056200;28;20488;-63
2022/03/14 01:32:38;;;;;;;2.93;1.37;;;10.60;99.90;;;;;;5056431;28;20531;-63
2022/03/14 01:35:09;;;;;;;5.50;1.30;;;10.60;99.90;;;;;;5054419;28;20449;-62
2022/03/14 01:37:42;;;;;;;3.50;1.83;;;10.60;99.90;;;;;;5053026;28;20461;-63
2022/03/14 01:40:14;;;;;;;4.10;1.80;;;10.50;99.90;;;;;;5054365;28;20476;-63
2022/03/14 01:42:45;;;;;;;3.57;1.90;;;10.50;99.90;;;;;;5049019;28;20552;-62
2022/03/14 01:45:17;;;;;;;2.97;1.17;;;10.50;99.90;;;;;;5047157;28;20533;-62
2022/03/14 01:47:48;;;;;;;1.80;1.30;;;10.50;99.90;;;;;;5053739;28;20483;-66
2022/03/14 01:50:19;;;;;;;3.70;1.70;;;10.50;99.90;;;;;;5062324;28;20452;-61
2022/03/14 01:52:52;;;;;;;5.43;2.10;;;10.50;99.90;;;;;;5053963;28;20464;-62
2022/03/14 01:55:23;;;;;;;4.50;1.90;;;10.50;99.90;;;;;;5052606;28;20446;-63
2022/03/14 01:57:57;;;;;;;3.73;2.10;;;10.40;99.90;;;;;;5054289;28;20472;-66
2022/03/14 02:00:28;;;;;;;4.43;2.20;;;10.30;99.90;;;;;;5062317;28;20452;-64
2022/03/14 02:02:59;;;;;;;6.30;2.40;;;10.30;99.90;;;;;;5052400;28;20535;-66
2022/03/14 02:05:33;;;;;;;8.60;2.80;;;10.20;99.90;;;;;;5055125;28;20460;-63
2022/03/14 02:08:06;;;;;;;4.30;2.33;;;10.10;99.90;;;;;;5062139;28;20495;-64
2022/03/14 02:10:38;;;;;;;3.43;1.70;;;10.10;99.90;;;;;;5052544;28;20873;-66
2022/03/14 02:13:10;;;;;;;6.17;2.40;;;10.00;99.90;;;;;;5045281;28;20644;-62
2022/03/14 02:15:41;;;;;;;5.27;2.10;;;10.00;99.90;;;;;;5053023;28;20481;-65
2022/03/14 02:18:12;;;;;;;4.20;1.87;;;10.10;99.90;;;;;;5046168;28;20441;-64
2022/03/14 02:20:45;;;;;;;6.80;2.53;;;10.00;99.90;;;;;;5052782;28;20519;-63
2022/03/14 02:23:16;;;;;;;7.47;2.83;;;10.00;99.90;;;;;;5048052;28;20460;-63
2022/03/14 02:25:50;;;;;;;4.63;2.20;;;10.00;99.90;;;;;;5049493;28;20458;-63
2022/03/14 02:28:22;;;;;;;3.00;2.13;;;10.00;99.90;;;;;;5049574;28;20491;-63
2022/03/14 02:30:53;;;;;;;3.17;1.77;;;10.00;99.90;;;;;;5059322;28;20668;-64
2022/03/14 02:33:24;;;;;;;4.53;2.10;;;10.00;99.90;;;;;;5047713;28;20541;-64
2022/03/14 02:35:57;;;;;;;8.53;2.50;;;10.10;99.90;;;;;;5056320;28;20555;-63
2022/03/14 02:38:28;;;;;;;2.90;2.20;;;10.10;99.90;;;;;;5058448;28;20463;-64
2022/03/14 02:40:59;;;;;;;6.43;1.87;;;10.00;99.90;;;;;;5057743;28;20748;-63
2022/03/14 02:43:30;;;;;;;6.87;1.90;;;10.00;99.90;;;;;;5045575;28;20463;-63
2022/03/14 02:46:00;;;;;;;4.28;2.03;;;10.00;99.90;;;;;;5046834;28;20544;-64
2022/03/14 02:48:32;;;;;;;4.20;1.80;;;10.00;99.90;;;;;;5059929;28;20217;-65
2022/03/14 02:51:04;;;;;;;2.87;1.80;;;10.00;99.90;;;;;;5057904;28;20274;-63
2022/03/14 02:53:35;;;;;;;4.60;1.83;;;10.00;99.90;;;;;;5046796;28;20481;-63
2022/03/14 02:56:07;;;;;;;3.67;2.00;;;10.00;99.90;;;;;;5050552;28;20473;-64
2022/03/14 02:58:39;;;;;;;5.90;2.20;;;9.90;99.90;;;;;;5056514;28;20458;-64
2022/03/14 03:01:10;;;;;;;8.10;2.17;;;9.90;99.90;;;;;;5061720;28;20547;-63
2022/03/14 03:03:42;;;;;;;4.73;2.03;;;9.90;99.90;;;;;;5061888;28;20848;-65
2022/03/14 03:06:15;;;;;;;5.47;1.90;;;9.90;99.90;;;;;;5061275;28;20457;-64
2022/03/14 03:08:46;;;;;;;5.67;2.20;;;9.90;99.90;;;;;;5059603;28;20583;-64
2022/03/14 03:11:17;;;;;;;8.03;2.67;;;9.80;99.90;;;;;;5060958;28;20452;-63
2022/03/14 03:13:49;;;;;;;6.97;2.20;;;9.80;99.90;;;;;;5059352;28;20480;-64
2022/03/14 03:16:21;;;;;;;7.15;2.88;;;9.70;99.90;;;;;;5063044;28;20484;-63
2022/03/14 03:18:52;;;;;;;5.63;2.50;;;9.70;99.90;;;;;;5053254;28;20203;-63
2022/03/14 03:21:24;;;;;;;4.90;2.00;;;9.70;99.90;;;;;;5059950;28;20452;-63
2022/03/14 03:23:55;;;;;;;7.03;2.70;;;9.70;99.90;;;;;;5064326;28;20292;-64
2022/03/14 03:26:26;;;;;;;7.67;3.00;;;9.80;99.90;;;;;;5052984;28;20202;-65
2022/03/14 03:28:57;;;;;;;8.83;5.00;;;9.80;99.90;;;;;;5056561;28;20479;-64
2022/03/14 03:31:28;;;;;;;6.00;4.55;;;9.80;99.90;;;;;;5058170;28;20476;-66
2022/03/14 03:33:59;;;;;;;5.60;3.53;;;9.80;99.90;;;;;;5059598;28;20213;-65
2022/03/14 03:36:32;;;;;;;5.47;3.83;;;9.80;99.90;;;;;;5059488;28;20444;-66
2022/03/14 03:39:03;;;;;;;10.33;3.50;;;9.90;99.90;;;;;;5059030;28;20468;-68
2022/03/14 03:41:34;;;;;;;7.13;2.80;;;9.90;99.90;;;;;;5059360;28;20562;-66
2022/03/14 03:44:06;;;;;;;8.60;3.30;;;9.80;99.90;;;;;;5058737;28;20529;-66
2022/03/14 03:46:37;;;;;;;6.30;2.70;;;9.80;99.90;;;;;;5060000;28;20486;-67
2022/03/14 03:49:08;;;;;;;5.43;3.20;;;9.80;99.90;;;;;;5058962;28;20494;-67
2022/03/14 03:51:40;;;;;;;5.32;2.50;;;9.80;99.90;;;;;;5057636;28;20484;-70
2022/03/14 03:54:11;;;;;;;8.33;2.60;;;9.80;99.90;;;;;;5059057;28;20232;-66
2022/03/14 03:56:50;;;;;;;5.80;3.17;;;9.80;99.90;;;;;;5058481;28;20459;-65
2022/03/14 03:59:24;;;;;;;9.97;2.50;;;9.80;99.90;;;;;;5057663;28;20495;-65
2022/03/14 04:01:55;;;;;;;5.43;2.67;;;9.80;99.90;;;;;;5058869;28;20452;-65
2022/03/14 04:04:28;;;;;;;4.60;2.80;;;9.90;99.90;;;;;;5057361;28;20445;-66
2022/03/14 04:07:01;;;;;;;3.50;2.70;;;9.80;99.90;;;;;;5060033;28;20578;-66
2022/03/14 04:09:32;;;;;;;7.87;3.53;;;9.80;99.90;;;;;;5059392;28;20526;-63
2022/03/14 04:12:03;;;;;;;5.47;2.40;;;9.80;99.90;;;;;;5068767;28;20468;-64
2022/03/14 04:14:35;;;;;;;4.93;3.13;;;9.70;99.90;;;;;;5062284;28;20449;-64
2022/03/14 04:17:07;;;;;;;12.90;4.03;;;9.70;99.90;;;;;;5060725;28;20484;-63
2022/03/14 04:19:41;;;;;;;4.47;2.73;;;9.80;99.90;;;;;;5065808;28;20531;-65
2022/03/14 04:22:15;;;;;;;7.28;2.28;;;9.80;99.90;;;;;;5055872;28;20448;-64
2022/03/14 04:24:46;;;;;;;4.00;3.00;;;9.80;99.90;;;;;;5061939;28;20208;-64
2022/03/14 04:27:17;;;;;;;5.75;2.63;;;9.80;99.90;;;;;;5061334;28;20452;-64
2022/03/14 04:29:48;;;;;;;5.90;2.57;;;9.70;99.90;;;;;;5064426;28;20227;-64
2022/03/14 04:32:19;;;;;;;6.10;3.10;;;9.70;99.90;;;;;;5065305;28;20886;-64
2022/03/14 04:34:50;;;;;;;4.43;2.92;;;9.70;99.90;;;;;;5066139;28;20460;-64
2022/03/14 04:37:23;;;;;;;5.03;3.37;;;9.70;99.90;;;;;;5064700;28;20296;-64
2022/03/14 04:39:55;;;;;;;4.67;2.83;;;9.50;99.90;;;;;;5065432;28;20563;-64
2022/03/14 04:42:25;;;;;;;6.50;3.20;;;9.60;99.90;;;;;;5054122;28;20547;-64
2022/03/14 04:44:57;;;;;;;8.00;3.60;;;9.70;99.90;;;;;;5065427;28;20452;-64
2022/03/14 04:47:27;;;;;;;7.07;3.70;;;9.70;99.90;;;;;;5064255;28;20454;-64
2022/03/14 04:49:58;;;;;;;8.47;3.00;;;9.70;99.90;;;;;;5066362;28;20482;-64
2022/03/14 04:52:32;;;;;;;7.00;2.57;;;9.60;99.90;;;;;;5065783;28;20518;-63
2022/03/14 04:55:03;;;;;;;8.47;2.70;;;9.60;99.90;;;;;;5064620;28;21035;-64
2022/03/14 04:57:33;;;;;;;9.10;2.60;;;9.60;99.90;;;;;;5062920;28;20453;-64
2022/03/14 05:00:08;;;;;;;5.40;3.23;;;9.60;99.90;;;;;;5064805;28;20460;-64
2022/03/14 05:02:38;;;;;;;6.50;2.88;;;9.60;99.90;;;;;;5064665;28;20454;-64
2022/03/14 05:05:12;;;;;;;7.20;2.70;;;9.60;99.90;;;;;;5069139;28;20262;-64
2022/03/14 05:07:45;;;;;;;6.90;2.93;;;9.70;99.90;;;;;;5075517;28;20477;-64
2022/03/14 05:10:16;;;;;;;9.53;3.60;;;9.70;99.90;;;;;;5063617;28;20488;-64
2022/03/14 05:12:46;;;;;;;8.47;3.63;;;9.70;99.90;;;;;;5064898;28;20460;-64
2022/03/14 05:15:45;;;;;;;9.52;4.20;;;9.70;99.90;;;;;;5069761;28;20449;-65
2022/03/14 05:18:16;;;;;;;9.20;3.87;;;9.70;99.90;;;;;;5070792;28;20202;-64
2022/03/14 05:20:46;;;;;;;7.37;4.03;;;9.70;99.90;;;;;;5067684;28;20508;-64
2022/03/14 05:23:19;;;;;;;8.60;3.87;;;9.70;99.90;;;;;;5069655;28;20558;-64
2022/03/14 05:25:50;;;;;;;7.37;3.70;;;9.70;99.90;;;;;;5070650;28;20448;-64
2022/03/14 05:28:21;;;;;;;7.40;3.00;;;9.70;99.90;;;;;;5062864;28;20453;-64
2022/03/14 05:30:52;;;;;;;7.43;2.97;;;9.70;99.90;;;;;;5064429;28;20490;-64
2022/03/14 05:33:23;;;;;;;11.47;3.57;;;9.70;99.90;;;;;;5067543;28;20450;-64
2022/03/14 05:35:55;;;;;;;7.20;3.70;;;9.70;99.90;;;;;;5069468;28;20440;-64
2022/03/14 05:38:28;;;;;;;14.23;4.18;;;9.70;99.90;;;;;;5076383;28;20461;-64
2022/03/14 05:40:59;;;;;;;6.77;4.20;;;9.70;99.90;;;;;;5065461;28;20236;-64
2022/03/14 05:43:36;;;;;;;6.60;3.65;;;9.60;99.90;;;;;;5057016;28;20521;-64
2022/03/14 05:46:08;;;;;;;13.23;4.23;;;9.50;99.90;;;;;;5072107;28;20201;-64
2022/03/14 05:48:39;;;;;;;7.97;3.40;;;9.50;99.90;;;;;;5058785;28;20531;-64
2022/03/14 05:51:10;;;;;;;14.80;3.60;;;9.60;99.90;;;;;;5064310;28;20484;-64
2022/03/14 05:53:42;;;;;;;10.10;4.30;;;9.60;99.90;;;;;;5068365;28;20455;-64
2022/03/14 05:56:14;;;;;;;9.90;4.00;;;9.50;99.90;;;;;;5067378;28;20544;-64
2022/03/14 05:58:48;;;;;;;12.07;4.20;;;9.50;99.90;;;;;;5060234;28;20216;-64
2022/03/14 06:01:19;;;;;;;11.17;3.67;;;9.60;99.90;;;;;;5063764;28;20466;-64
2022/03/14 06:03:51;;;;;;;11.63;4.60;;;9.50;99.90;;;;;;5063328;28;20459;-64
2022/03/14 06:06:22;;;;;;;8.80;3.47;;;9.60;99.90;;;;;;5067362;28;20451;-64
2022/03/14 06:08:55;;;;;;;12.37;4.23;;;9.60;99.90;;;;;;5052049;28;20478;-64
2022/03/14 06:11:27;;;;;;;12.43;4.73;;;9.70;99.90;;;;;;5069607;28;20491;-63
2022/03/14 06:13:58;;;;;;;12.90;3.80;;;9.70;99.90;;;;;;5073169;28;20454;-64
2022/03/14 06:16:29;;;;;;;12.27;4.57;;;9.70;99.90;;;;;;5063385;28;20490;-63
2022/03/14 06:19:00;;;;;;;13.00;3.50;;;9.80;99.90;;;;;;5062976;28;20456;-64
2022/03/14 06:21:34;;;;;;;8.87;3.60;;;9.70;99.90;;;;;;5065196;28;20452;-64
2022/03/14 06:24:08;;;;;;;11.10;4.30;;;9.70;99.90;;;;;;5061037;28;20472;-64
2022/03/14 06:26:39;;;;;;;9.40;3.90;;;9.70;99.90;;;;;;5063395;28;20219;-64
2022/03/14 06:29:10;;;;;;;11.03;3.90;;;9.70;99.90;;;;;;5062681;28;20457;-64
2022/03/14 06:31:41;;;;;;;20.30;6.77;;;9.70;99.90;;;;;;5063590;28;20484;-64
2022/03/14 06:34:12;;;;;;;6.07;3.50;;;9.70;99.90;;;;;;5064902;28;21459;-64
2022/03/14 06:36:44;;;;;;;8.80;4.33;;;9.70;99.90;;;;;;5065194;28;20459;-63
2022/03/14 06:39:16;;;;;;;10.50;4.27;;;9.60;99.90;;;;;;5072367;28;20467;-64
2022/03/14 06:41:48;;;;;;;12.38;3.45;;;9.60;99.90;;;;;;5067781;28;20455;-64
2022/03/14 06:44:18;;;;;;;8.83;4.23;;;9.60;99.90;;;;;;5065320;28;20288;-64
2022/03/14 06:46:51;;;;;;;13.43;4.50;;;9.60;99.90;;;;;;5062681;28;20463;-64
2022/03/14 06:49:23;;;;;;;13.37;3.60;;;9.60;99.90;;;;;;5061528;28;20454;-64
2022/03/14 06:51:54;;;;;;;7.07;3.87;;;9.60;99.90;;;;;;5062488;28;20508;-63
2022/03/14 06:54:26;;;;;;;10.63;3.90;;;9.60;99.90;;;;;;5062796;28;20527;-63
2022/03/14 06:56:57;;;;;;;9.30;4.10;;;9.70;99.90;;;;;;5062603;28;20453;-64
2022/03/14 06:59:28;;;;;;;7.70;3.77;;;9.70;99.90;;;;;;5061338;28;20452;-64
2022/03/14 07:01:59;;;;;;;10.13;4.13;;;9.70;99.90;;;;;;5068372;28;20448;-63
2022/03/14 07:04:31;;;;;;;14.27;3.70;;;9.70;99.90;;;;;;5063905;28;21001;-64
2022/03/14 07:07:03;;;;;;;7.40;3.27;;;9.70;99.90;;;;;;5074263;28;20459;-63
2022/03/14 07:09:37;;;;;;;13.73;5.37;;;9.70;99.90;;;;;;5074513;28;20453;-64
2022/03/14 07:12:11;;;;;;;8.70;4.33;;;9.60;99.90;;;;;;5065416;28;20914;-64
2022/03/14 07:14:42;;;;;;;8.50;4.50;;;9.60;99.90;;;;;;5063506;28;20452;-64
2022/03/14 07:17:13;;;;;;;9.60;3.87;;;9.60;99.90;;;;;;5077863;28;20513;-64
2022/03/14 07:19:46;;;;;;;10.30;4.00;;;9.60;99.90;;;;;;5077897;28;20545;-64
2022/03/14 07:22:19;;;;;;;7.60;3.93;;;9.50;99.90;;;;;;5062713;28;20939;-64
2022/03/14 07:24:58;;;;;;;8.67;3.53;;;9.60;99.90;;;;;;5065228;28;20459;-64
2022/03/14 07:27:29;;;;;;;10.47;3.23;;;9.60;99.90;;;;;;5061419;28;21290;-64
2022/03/14 07:29:59;;;;;;;9.97;4.50;;;9.60;99.90;;;;;;5061634;28;20823;-64
2022/03/14 07:32:30;;;;;;;6.50;2.90;;;9.50;99.90;;;;;;5063787;28;20491;-64
2022/03/14 07:35:02;;;;;;;11.30;4.60;;;9.50;99.90;;;;;;5064810;28;20445;-64
2022/03/14 07:37:32;;;;;;;9.30;3.90;;;9.50;99.90;;;;;;5061883;28;20479;-64
2022/03/14 07:40:06;;;;;;;11.40;4.30;;;9.60;99.90;;;;;;5062003;28;20458;-65
2022/03/14 07:42:42;;;;;;;10.33;4.10;;;9.60;99.90;;;;;;5063039;28;20451;-64
2022/03/14 07:45:15;;;;;;;8.83;3.87;;;9.60;99.90;;;;;;5062387;28;20518;-64
2022/03/14 07:47:46;;;;;;;9.00;3.67;;;9.70;99.90;;;;;;5062273;28;20508;-64
2022/03/14 07:50:19;;;;;;;7.22;4.05;;;9.60;99.90;;;;;;5061401;28;20819;-66
2022/03/14 07:52:49;;;;;;;9.43;3.73;;;9.60;99.90;;;;;;5061587;28;20229;-63
2022/03/14 07:55:22;;;;;;;12.30;3.80;;;9.60;99.90;;;;;;5063258;28;20942;-63
2022/03/14 07:57:53;;;;;;;10.47;3.70;;;9.60;99.90;;;;;;5060755;28;20979;-63
2022/03/14 08:00:24;;;;;;;7.67;3.50;;;9.60;99.90;;;;;;5069763;28;20455;-64
2022/03/14 08:02:55;;;;;;;7.60;4.63;;;9.60;99.90;;;;;;5063547;28;20460;-64
2022/03/14 08:05:27;;;;;;;10.30;5.10;;;9.60;99.90;;;;;;5072991;28;20775;-63
2022/03/14 08:07:59;;;;;;;16.00;4.00;;;9.70;99.90;;;;;;5071587;28;20516;-63
2022/03/14 08:10:36;;;;;;;10.57;4.13;;;9.70;99.90;;;;;;5068718;28;20198;-64
2022/03/14 08:13:07;;;;;;;11.43;3.87;;;9.60;99.90;;;;;;5064149;28;20825;-64
2022/03/14 08:15:38;;;;;;;10.80;3.70;;;9.60;99.90;;;;;;5067332;28;20955;-63
2022/03/14 08:18:10;;;;;;;13.83;3.87;;;9.60;99.90;;;;;;5067583;28;20447;-63
2022/03/14 08:20:41;;;;;;;8.77;3.87;;;9.70;99.90;;;;;;5070298;28;20784;-64
2022/03/14 08:23:12;;;;;;;9.60;3.50;;;9.70;99.90;;;;;;5064969;28;20447;-64
2022/03/14 08:25:46;;;;;;;10.00;3.83;;;9.70;99.90;;;;;;5064684;28;20518;-64
2022/03/14 08:28:16;;;;;;;11.30;3.80;;;9.60;99.90;;;;;;5055037;28;20449;-63
2022/03/14 08:30:48;;;;;;;11.33;4.33;;;9.60;99.90;;;;;;5065948;28;20466;-64
2022/03/14 08:33:21;;;;;;;11.60;3.70;;;9.60;99.90;;;;;;5064896;28;20512;-63
2022/03/14 08:35:54;;;;;;;8.60;3.73;;;9.60;99.90;;;;;;5057969;28;20464;-64
2022/03/14 08:38:27;;;;;;;9.83;4.60;;;9.60;99.90;;;;;;5066474;28;20500;-64
2022/03/14 08:41:00;;;;;;;11.03;3.77;;;9.70;99.90;;;;;;5066091;28;20532;-64
2022/03/14 08:43:31;;;;;;;13.00;4.15;;;9.80;99.90;;;;;;5064033;28;20440;-63
2022/03/14 08:46:01;;;;;;;13.40;4.57;;;9.70;99.90;;;;;;5067777;28;20543;-63
2022/03/14 08:48:33;;;;;;;8.25;3.17;;;9.80;99.90;;;;;;5071322;28;20548;-64
2022/03/14 08:51:03;;;;;;;10.90;3.10;;;9.70;99.90;;;;;;5064563;28;20214;-63
2022/03/14 08:53:34;;;;;;;7.20;3.30;;;9.70;99.90;;;;;;5065375;28;20460;-63
2022/03/14 08:56:07;;;;;;;15.77;3.80;;;9.70;99.90;;;;;;5067218;28;20510;-64
2022/03/14 08:58:38;;;;;;;9.87;3.60;;;9.70;99.90;;;;;;5064069;28;20287;-63
2022/03/14 09:01:11;;;;;;;9.27;3.30;;;9.70;99.90;;;;;;5072585;28;20459;-63
2022/03/14 09:03:42;;;;;;;10.07;3.70;;;9.60;99.90;;;;;;5066333;28;20462;-64
2022/03/14 09:06:12;;;;;;;5.67;3.20;;;9.50;99.90;;;;;;5064542;28;20198;-63
2022/03/14 09:08:44;;;;;;;8.00;3.90;;;9.60;99.90;;;;;;5063707;28;20448;-63
2022/03/14 09:11:17;;;;;;;18.00;4.57;;;9.60;99.90;;;;;;5066533;28;20528;-63
2022/03/14 09:13:48;;;;;;;8.57;3.77;;;9.70;99.90;;;;;;5062015;28;20463;-63
2022/03/14 09:16:19;;;;;;;9.80;3.37;;;9.70;99.90;;;;;;5067665;28;20980;-63
2022/03/14 09:18:52;;;;;;;5.80;3.60;;;9.60;99.90;;;;;;5075255;28;20443;-64
2022/03/14 09:21:26;;;;;;;8.93;3.80;;;9.60;99.90;;;;;;5066756;28;20466;-63
2022/03/14 09:24:00;;;;;;;5.20;2.87;;;9.60;99.90;;;;;;5065363;28;20448;-64
2022/03/14 09:26:35;;;;;;;8.93;4.03;;;9.60;99.90;;;;;;5064337;28;20567;-63
2022/03/14 09:29:06;;;;;;;5.87;2.83;;;9.70;99.90;;;;;;5063213;28;20520;-63
2022/03/14 09:31:38;;;;;;;13.30;3.15;;;9.70;99.90;;;;;;5063836;28;20452;-64
2022/03/14 09:34:09;;;;;;;7.20;2.80;;;9.70;99.90;;;;;;5063414;28;20225;-64
2022/03/14 09:36:40;;;;;;;5.10;2.97;;;9.70;99.90;;;;;;5071226;28;20445;-64
2022/03/14 09:39:15;;;;;;;9.68;3.28;;;9.70;99.90;;;;;;5064339;28;20749;-63
2022/03/14 09:41:49;;;;;;;5.80;2.63;;;9.70;99.90;;;;;;5064457;28;20285;-63
2022/03/14 09:44:22;;;;;;;8.80;3.17;;;9.70;99.90;;;;;;5069043;28;20447;-64
2022/03/14 09:46:56;;;;;;;8.03;3.03;;;9.70;99.90;;;;;;5065969;28;20552;-64
2022/03/14 09:49:29;;;;;;;7.50;3.10;;;9.80;99.90;;;;;;5063583;28;20443;-64
2022/03/14 09:52:01;;;;;;;11.97;3.57;;;9.80;99.90;;;;;;5051407;28;20396;-63
2022/03/14 09:54:33;;;;;;;5.83;3.03;;;9.80;99.90;;;;;;5063743;28;20542;-63
2022/03/14 09:57:06;;;;;;;5.00;2.47;;;9.70;99.90;;;;;;5063305;28;20463;-63
2022/03/14 09:59:39;;;;;;;10.70;2.70;;;9.80;99.90;;;;;;5063977;28;20463;-64
2022/03/14 10:02:13;;;;;;;9.67;2.60;;;9.80;99.90;;;;;;5063913;28;20453;-63
2022/03/14 10:04:44;;;;;;;7.75;2.65;;;9.80;99.90;;;;;;5063816;28;20459;-63
2022/03/14 10:07:16;;;;;;;5.33;2.33;;;9.70;99.90;;;;;;5063582;28;20309;-64
2022/03/14 10:09:47;;;;;;;11.63;3.13;;;9.60;99.90;;;;;;5062093;28;20950;-63
2022/03/14 10:12:20;;;;;;;5.77;2.90;;;9.60;99.90;;;;;;5065692;28;20510;-63
2022/03/14 10:14:53;;;;;;;4.40;2.53;;;9.60;99.90;;;;;;5064123;28;20448;-63
2022/03/14 10:17:23;;;;;;;6.60;2.63;;;9.60;99.90;;;;;;5074705;28;20229;-63
2022/03/14 10:19:59;;;;;;;9.03;2.77;;;9.60;99.90;;;;;;5064490;28;20495;-64
2022/03/14 10:22:36;;;;;;;12.40;2.80;;;9.50;99.90;;;;;;5059036;28;20455;-63
2022/03/14 10:25:09;;;;;;;5.97;2.43;;;9.40;99.90;;;;;;5067746;28;20741;-63
2022/03/14 10:27:44;;;;;;;6.90;2.93;;;9.40;99.90;;;;;;5056725;28;20835;-63
2022/03/14 10:30:26;;;;;;;4.10;2.10;;;9.40;99.90;;;;;;5064051;28;20794;-63
2022/03/14 10:33:12;;;;;;;6.53;2.77;;;9.40;99.90;;;;;;5065822;28;20490;-63
2022/03/14 10:35:45;;;;;;;7.57;3.40;;;9.30;99.90;;;;;;5058063;28;20459;-63
2022/03/14 10:38:16;;;;;;;6.13;2.63;;;9.30;99.90;;;;;;5074222;28;20452;-63
2022/03/14 10:40:49;;;;;;;4.43;2.93;;;9.30;99.90;;;;;;5063773;28;20445;-63
2022/03/14 10:43:33;;;;;;;11.87;3.43;;;9.20;99.90;;;;;;5067341;28;20448;-63
2022/03/14 10:46:06;;;;;;;9.00;3.60;;;9.20;99.90;;;;;;5079616;28;20469;-63
2022/03/14 10:48:38;;;;;;;10.10;3.17;;;9.20;99.90;;;;;;5062487;28;20455;-64
2022/03/14 10:51:11;;;;;;;5.57;3.07;;;9.20;99.90;;;;;;5063472;28;20460;-63
2022/03/14 10:53:43;;;;;;;8.80;3.37;;;9.10;99.90;;;;;;5062256;28;20507;-64
2022/03/14 10:56:15;;;;;;;8.43;2.97;;;9.10;99.90;;;;;;5062013;28;21099;-64
2022/03/14 10:58:47;;;;;;;13.00;4.10;;;9.10;99.90;;;;;;5061999;28;20447;-63
2022/03/14 11:01:18;;;;;;;8.40;3.20;;;9.10;99.90;;;;;;5061621;28;20448;-64
2022/03/14 11:03:49;;;;;;;9.45;4.82;;;9.10;99.90;;;;;;5062531;28;20449;-64
2022/03/14 11:06:22;;;;;;;8.13;3.77;;;9.10;99.90;;;;;;5062788;28;20316;-64
2022/03/14 11:08:53;;;;;;;7.68;3.25;;;9.10;99.90;;;;;;5059657;28;20448;-64
2022/03/14 11:11:25;;;;;;;11.27;3.90;;;9.10;99.90;;;;;;5062456;28;20209;-64
2022/03/14 11:13:58;;;;;;;6.13;3.13;;;9.10;99.90;;;;;;5066596;28;20479;-63
2022/03/14 11:16:33;;;;;;;10.05;3.33;;;9.10;99.90;;;;;;5062554;28;20243;-63
2022/03/14 11:19:04;;;;;;;5.07;2.70;;;9.10;99.90;;;;;;5064530;28;20296;-63
2022/03/14 11:21:36;;;;;;;6.50;3.47;;;9.10;99.90;;;;;;5061821;28;20452;-63
2022/03/14 11:24:08;;;;;;;8.65;3.22;;;9.10;99.90;;;;;;5061354;28;20445;-64
2022/03/14 11:26:46;;;;;;;8.20;3.23;;;9.10;99.90;;;;;;5061738;28;20199;-64
2022/03/14 11:29:19;;;;;;;8.65;3.22;;;9.10;99.90;;;;;;5067123;28;20440;-63
2022/03/14 11:31:52;;;;;;;9.13;3.30;;;9.10;99.90;;;;;;5076004;28;20205;-63
2022/03/14 11:34:26;;;;;;;5.15;3.17;;;9.20;99.90;;;;;;5061347;28;20852;-63
2022/03/14 11:36:57;;;;;;;9.65;3.40;;;9.10;99.90;;;;;;5057171;28;20673;-63
2022/03/14 11:39:30;;;;;;;6.23;2.90;;;9.20;99.90;;;;;;5064950;28;20205;-64
2022/03/14 11:42:00;;;;;;;7.43;3.90;;;9.20;99.90;;;;;;5045596;28;20559;-63
2022/03/14 11:44:34;;;;;;;8.20;3.50;;;9.10;99.90;;;;;;5064573;28;20528;-63
2022/03/14 11:47:06;;;;;;;6.73;3.20;;;9.10;99.90;;;;;;5062124;28;20452;-63
2022/03/14 11:49:37;;;;;;;8.13;3.30;;;9.10;99.90;;;;;;5061625;28;20462;-63
2022/03/14 11:52:10;;;;;;;9.93;3.60;;;9.10;99.90;;;;;;5060335;28;20449;-64
2022/03/14 11:54:43;;;;;;;9.35;3.80;;;9.00;99.90;;;;;;5064119;28;20985;-64
2022/03/14 11:57:14;;;;;;;6.87;3.00;;;9.10;99.90;;;;;;5067835;28;20190;-64
2022/03/14 11:59:47;;;;;;;5.10;3.53;;;9.10;99.90;;;;;;5072134;28;20589;-63
2022/03/14 12:02:37;;;;;;;7.50;3.30;;;9.10;99.90;;;;;;5058082;28;20452;-63
2022/03/14 12:05:09;;;;;;;6.53;3.40;;;9.10;99.90;;;;;;5053439;28;20536;-63
2022/03/14 12:07:40;;;;;;;8.60;4.07;;;9.00;99.90;;;;;;5061493;28;20453;-63
2022/03/14 12:10:28;;;;;;;5.93;3.43;;;9.10;99.90;;;;;;5068523;28;20448;-63
2022/03/14 12:12:59;;;;;;;8.40;3.57;;;9.10;99.90;;;;;;5066018;28;20451;-64
2022/03/14 12:15:43;;;;;;;13.37;3.33;;;9.10;99.90;;;;;;5065185;28;20466;-64
2022/03/14 12:18:39;;;;;;;9.30;3.80;;;9.00;99.90;;;;;;5062160;28;20523;-63
2022/03/14 12:21:52;;;;;;;7.10;2.70;;;9.00;99.90;;;;;;5066819;28;20526;-63
2022/03/14 12:24:47;;;;;;;6.30;2.77;;;9.00;99.90;;;;;;5064494;28;20545;-63
2022/03/14 12:27:23;;;;;;;6.30;3.40;;;9.00;99.90;;;;;;5062306;28;20444;-63
2022/03/14 12:29:56;;;;;;;5.67;3.07;;;9.00;99.90;;;;;;5062010;28;20498;-63
2022/03/14 12:32:34;;;;;;;6.03;3.10;;;8.90;99.90;;;;;;5061873;28;20528;-63
2022/03/14 12:35:12;;;;;;;6.18;3.08;;;8.90;99.90;;;;;;5061343;28;20339;-63
2022/03/14 12:37:49;;;;;;;9.50;3.70;;;8.90;99.90;;;;;;5071249;28;20300;-63
2022/03/14 12:40:45;;;;;;;8.03;3.03;;;8.90;99.90;;;;;;5061111;28;20205;-63
2022/03/14 12:43:34;;;;;;;5.18;2.75;;;8.90;99.90;;;;;;5059309;28;20463;-63
2022/03/14 12:46:07;;;;;;;7.37;3.20;;;8.80;99.90;;;;;;5077673;28;20194;-63
2022/03/14 12:48:52;;;;;;;7.33;3.40;;;8.80;99.90;;;;;;5063309;28;20565;-63
2022/03/14 12:51:27;;;;;;;6.55;3.20;;;8.70;99.90;;;;;;5069487;28;20436;-63
2022/03/14 12:54:00;;;;;;;8.15;3.20;;;8.80;99.90;;;;;;5064002;28;20224;-63
2022/03/14 12:56:32;;;;;;;5.37;3.37;;;8.80;99.90;;;;;;5064531;28;20201;-63
2022/03/14 12:59:09;;;;;;;5.77;3.20;;;8.80;99.90;;;;;;5072201;28;20458;-63
2022/03/14 13:01:42;;;;;;;5.20;3.50;;;8.90;99.90;;;;;;5067848;28;20452;-63
2022/03/14 13:04:22;;;;;;;6.60;3.67;;;8.90;99.90;;;;;;5064517;28;20194;-63
2022/03/14 13:07:00;;;;;;;5.00;2.70;;;8.90;99.90;;;;;;5071178;28;20277;-63
2022/03/14 13:09:54;;;;;;;4.93;3.17;;;8.80;99.90;;;;;;5058832;28;20193;-63
2022/03/14 13:12:26;;;;;;;7.93;3.97;;;8.80;99.90;;;;;;5063315;28;20206;-64
2022/03/14 13:15:05;;;;;;;6.22;3.20;;;8.80;99.90;;;;;;5066748;28;20329;-63
2022/03/14 13:17:48;;;;;;;4.97;3.20;;;8.80;99.90;;;;;;5067910;28;20576;-64
2022/03/14 13:20:28;;;;;;;4.93;2.93;;;8.80;99.90;;;;;;5069613;28;20277;-63
2022/03/14 13:23:13;;;;;;;7.13;3.20;;;8.70;99.90;;;;;;5060055;28;20452;-63